createdAt,value
2023-04-22T00:07:07.666Z,14.55
2023-04-22T00:17:12.308Z,14.40
2023-04-22T00:27:15.231Z,14.08
2023-04-22T00:37:19.332Z,13.98
2023-04-22T00:47:26.669Z,14.07
2023-04-22T00:57:32.542Z,14.15
2023-04-22T01:07:35.666Z,14.20
2023-04-22T01:17:39.843Z,13.92
2023-04-22T01:27:44.655Z,13.59
2023-04-22T01:37:47.490Z,13.61
2023-04-22T01:47:51.739Z,13.61
2023-04-22T01:57:54.509Z,13.61
2023-04-22T02:07:58.552Z,13.66
2023-04-22T02:18:03.578Z,13.65
2023-04-22T02:28:07.749Z,13.65
2023-04-22T02:38:11.786Z,13.65
2023-04-22T02:48:16.180Z,13.58
2023-04-22T02:58:19.172Z,13.43
2023-04-22T03:08:23.605Z,13.17
2023-04-22T03:18:26.449Z,13.02
2023-04-22T03:28:30.492Z,12.97
2023-04-22T03:38:33.271Z,12.75
2023-04-22T03:48:37.516Z,12.49
2023-04-22T03:58:40.185Z,12.20
2023-04-22T04:08:44.321Z,12.00
2023-04-22T04:18:47.088Z,11.78
2023-04-22T04:28:51.153Z,11.56
2023-04-22T04:38:55.731Z,11.34
2023-04-22T04:48:59.797Z,11.51
2023-04-22T04:59:02.657Z,11.87
2023-04-22T05:09:08.324Z,12.25
2023-04-22T05:19:11.304Z,12.34
2023-04-22T05:29:15.543Z,12.66
2023-04-22T05:39:18.326Z,12.79
2023-04-22T05:49:22.456Z,12.89
2023-04-22T05:59:25.295Z,13.05
2023-04-22T06:09:29.452Z,13.39
2023-04-22T06:19:32.151Z,13.59
2023-04-22T06:29:36.410Z,13.82
2023-04-22T06:39:39.587Z,14.35
2023-04-22T06:49:44.969Z,14.75
2023-04-22T06:59:47.771Z,15.01
2023-04-22T07:09:52.071Z,15.67
2023-04-22T07:19:55.245Z,16.02
2023-04-22T07:30:00.536Z,16.50
2023-04-22T07:40:03.671Z,16.72
2023-04-22T07:50:08.935Z,16.87
2023-04-22T08:00:16.080Z,17.55
2023-04-22T08:10:20.638Z,17.67
2023-04-22T08:20:25.737Z,17.91
2023-04-22T08:41:41.266Z,19.55
2023-04-22T08:51:46.424Z,19.99
2023-04-22T09:01:56.827Z,20.27
2023-04-22T09:12:06.681Z,20.27
2023-04-22T09:22:14.128Z,20.60
2023-04-22T09:32:19.242Z,21.22
2023-04-22T09:42:23.226Z,21.39
2023-04-22T09:52:35.447Z,21.24
2023-04-22T10:02:38.306Z,21.90
2023-04-22T10:12:43.148Z,22.61
2023-04-22T10:22:46.682Z,22.81
2023-04-22T10:32:50.986Z,23.47
2023-04-22T10:42:55.960Z,23.84
2023-04-22T10:53:06.110Z,23.91
2023-04-22T11:03:21.765Z,24.15
2023-04-22T11:13:26.466Z,24.40
2023-04-22T11:23:29.879Z,25.43
2023-04-22T11:33:39.121Z,31.11
2023-04-22T11:55:11.885Z,33.56
2023-04-22T12:16:21.318Z,34.37
2023-04-22T12:26:26.916Z,32.50
2023-04-22T12:36:32.602Z,32.92
2023-04-22T12:46:40.793Z,34.06
2023-04-22T12:57:09.894Z,34.53
2023-04-22T13:07:24.702Z,36.55
2023-04-22T13:17:29.215Z,30.98
2023-04-22T13:27:32.052Z,32.01
2023-04-22T13:37:36.395Z,29.63
2023-04-22T13:47:42.896Z,28.20
2023-04-22T13:57:47.112Z,29.11
2023-04-22T14:07:49.895Z,27.39
2023-04-22T14:17:56.120Z,29.28
2023-04-22T14:27:59.011Z,27.80
2023-04-22T14:38:06.984Z,29.13
2023-04-22T14:48:14.211Z,26.12
2023-04-22T14:58:21.547Z,24.65
2023-04-22T15:08:25.460Z,24.43
2023-04-22T15:18:29.698Z,23.95
2023-04-22T15:28:32.347Z,23.28
2023-04-22T15:38:38.024Z,20.89
2023-04-22T15:48:41.335Z,21.91
2023-04-22T15:58:45.396Z,22.13
2023-04-22T16:08:48.125Z,22.60
2023-04-22T16:18:52.350Z,21.73
2023-04-22T16:28:55.838Z,21.35
2023-04-22T16:39:00.024Z,17.60
2023-04-22T16:49:02.809Z,15.22
2023-04-22T16:59:06.935Z,15.08
2023-04-22T17:09:10.185Z,15.34
2023-04-22T17:19:14.292Z,15.46
2023-04-22T17:29:21.358Z,15.76
2023-04-22T17:39:25.400Z,15.77
2023-04-22T17:49:28.045Z,15.89
2023-04-22T17:59:32.062Z,15.74
2023-04-22T18:09:34.699Z,15.69
2023-04-22T18:19:39.178Z,15.76
2023-04-22T18:29:42.287Z,15.62
2023-04-22T18:39:46.657Z,15.57
2023-04-22T18:49:49.293Z,15.72
2023-04-22T18:59:53.521Z,15.26
2023-04-22T19:09:56.455Z,15.00
2023-04-22T19:20:25.938Z,14.94
2023-04-22T19:31:06.141Z,14.97
2023-04-22T19:41:24.906Z,15.04
2023-04-22T19:51:53.785Z,14.98
2023-04-22T20:13:18.109Z,14.27
2023-04-22T20:26:55.802Z,14.22
2023-04-22T20:46:14.877Z,13.69
2023-04-22T21:08:06.841Z,12.30
2023-04-22T21:18:23.154Z,11.90
2023-04-22T21:28:31.090Z,11.81
2023-04-22T21:38:40.098Z,11.52
2023-04-22T21:48:48.410Z,11.26
2023-04-22T21:58:53.737Z,11.22
2023-04-22T22:09:00.337Z,11.18
2023-04-22T22:19:06.394Z,11.23
2023-04-22T22:29:22.021Z,11.40
2023-04-22T22:39:35.071Z,11.38
2023-04-22T22:49:39.356Z,11.42
2023-04-22T22:59:51.674Z,11.13
2023-04-22T23:10:19.107Z,11.31
2023-04-22T23:20:23.815Z,10.80
2023-04-22T23:30:54.659Z,10.77
2023-04-22T23:41:01.216Z,10.65
2023-04-22T23:51:22.449Z,10.66
